Airfield :
LOGIN :

Register | Disclaimer

   EN    FR    IT 

 










Legend :    VFR   Marginal VFR   IFR   Intensive IFR   Very Intensive IFR
Visi :
Ceiling :
>= 8 km
>= 3000ft
5 to 8 km
1000 to 3000 ft
1500m to 5 km
500 to 1000 ft
800 to 1500m
200 to 500 ft
< 800m
< 200 ft
Symbols :   Thunderstorms  Fog  Heavy snow  Heavy precipitations  Wind > 20 kt
SIGMETs :     Misc.  Thunderstorms  Icing  Turbulence  Mountain Waves  Volcanic Ashes







- Airport Elevation : 665 ft
- IATA code : NOC


EIKN - Connaught / Knock- Ireland West

METAR N/A
TAF TAF EIKN
Valid from the 21 at 00:00 until the 22 at 00:00 UTC


202300Z 2100/2124 14010KT 1200 BR BKN002
BECMG 2100/2103 0800 FG -RADZ BKN001
TEMPO 2100/2103 0300 RASN BKN001
TEMPO 2103/2112 0300 RADZ BKN001
BECMG 2108/2111 23015KT
BECMG 2112/2115 26018KT 9999 NSW SCT009 BKN020
TEMPO 2112/2118 26020G30KT BKN009
No reported NOTAMs for that airfield.
1 SIGMET reported for the Shannon FIR (EISN) :
 
Severe icing
EISN SIGMET 01 VALID 210140/210540 EINN
EISN SHANNON FIR SEV ICE FCST NE OF LINE N5257 W00530 - N5334 W01000 3000FT/FL140 MOV SE AT 15KT NC=



MET'MAP, your aeronautical weather chart ! - Copyright ORBIFLY December 2007 - Disclaimer

ORBIFLY MET'MAP TEAM :

Programming & Development : Alexandra Zaïnal
Concept & Development : Baudouin d'Aumeries
Co-Development & Prog : Marc-Olivier Méhu
Technical & hardware support : Manuel Goepfert

Contact : metmap@orbifly.com




SOURCES & CREDITS :

   NOAA